Time;durP1;ratioP1;P1;durP2;ratioP2;P2;SDS_P1;SDS_P2;PMS_P1;PMS_P2;Temp;Humidity;BMP_temperature;BMP_pressure;BME280_temperature;BME280_humidity;BME280_pressure;Samples;Min_cycle;Max_cycle;Signal;HPM_P1;HPM_P2
2023/06/17 00:00:29;;;;;;;0.20;0.20;;;13.80;99.90;;;;;;5101144;28;20417;-78
2023/06/17 00:02:55;;;;;;;0.10;0.10;;;13.80;99.90;;;;;;5081743;28;20118;-80
2023/06/17 00:05:24;;;;;;;0.10;0.10;;;13.90;99.90;;;;;;5082220;28;20077;-82
2023/06/17 00:07:50;;;;;;;0.40;0.40;;;13.90;99.90;;;;;;5082184;28;20032;-77
2023/06/17 00:10:15;;;;;;;0.20;0.20;;;13.90;99.90;;;;;;5101992;28;20088;-78
2023/06/17 00:12:41;;;;;;;0.10;0.10;;;13.90;99.90;;;;;;5102495;28;20046;-76
2023/06/17 00:15:07;;;;;;;0.10;0.10;;;13.90;99.90;;;;;;5083472;28;20474;-81
2023/06/17 00:17:33;;;;;;;0.10;0.10;;;13.90;99.90;;;;;;5083895;28;20031;-80
2023/06/17 00:20:11;;;;;;;0.20;0.20;;;13.80;99.90;;;;;;5082800;28;20027;-77
2023/06/17 00:22:39;;;;;;;0.10;0.10;;;13.80;99.90;;;;;;5082749;28;20114;-77
2023/06/17 00:25:06;;;;;;;0.10;0.10;;;15.00;99.90;;;;;;5100752;28;20102;-77
2023/06/17 00:27:32;;;;;;;0.30;0.30;;;13.80;99.90;;;;;;5100350;28;20008;-77
2023/06/17 00:30:00;;;;;;;0.85;0.85;;;13.80;99.90;;;;;;5099806;28;20022;-77
2023/06/17 00:32:27;;;;;;;0.10;0.10;;;13.70;99.90;;;;;;5080744;28;20024;-76
2023/06/17 00:34:53;;;;;;;3.47;3.22;;;13.80;99.90;;;;;;5082063;28;20407;-77
2023/06/17 00:37:19;;;;;;;0.10;0.10;;;13.80;99.90;;;;;;5082073;28;20231;-80
2023/06/17 00:39:45;;;;;;;0.10;0.10;;;13.80;99.90;;;;;;5082872;28;20533;-76
2023/06/17 00:42:14;;;;;;;0.30;0.30;;;13.80;99.90;;;;;;5081638;28;20038;-77
2023/06/17 00:44:40;;;;;;;0.20;0.20;;;13.80;99.90;;;;;;5100266;28;20027;-77
2023/06/17 00:47:08;;;;;;;0.20;0.20;;;13.70;99.90;;;;;;5081752;28;20047;-76
2023/06/17 00:49:36;;;;;;;0.10;0.10;;;13.70;99.90;;;;;;5081503;28;20031;-78
2023/06/17 00:52:04;;;;;;;0.47;0.47;;;13.70;99.90;;;;;;5099766;28;20075;-77
2023/06/17 00:54:31;;;;;;;0.15;0.15;;;13.70;99.90;;;;;;5099551;28;20563;-76
2023/06/17 00:57:01;;;;;;;0.10;0.10;;;13.70;99.90;;;;;;5099709;28;20113;-82
2023/06/17 00:59:31;;;;;;;1.23;1.20;;;13.70;99.90;;;;;;5099612;28;20027;-76
2023/06/17 01:01:57;;;;;;;0.20;0.20;;;13.80;99.90;;;;;;5099527;28;20424;-77
2023/06/17 01:04:23;;;;;;;0.10;0.10;;;13.80;99.90;;;;;;5099374;28;20130;-80
2023/06/17 01:07:23;;;;;;;1.73;1.58;;;13.80;99.90;;;;;;5099967;28;20509;-79
2023/06/17 01:10:22;;;;;;;0.20;0.20;;;13.80;99.90;;;;;;5075566;28;20067;-78
2023/06/17 01:12:50;;;;;;;0.20;0.20;;;13.90;99.90;;;;;;4996060;28;20034;-82
2023/06/17 01:15:17;;;;;;;0.20;0.20;;;13.90;99.90;;;;;;4996391;28;20050;-76
2023/06/17 01:17:46;;;;;;;2.83;2.67;;;13.90;99.90;;;;;;4978950;28;20037;-83
2023/06/17 01:20:13;;;;;;;0.13;0.13;;;13.90;99.90;;;;;;4995995;28;20026;-78
2023/06/17 01:22:40;;;;;;;0.17;0.17;;;13.90;99.90;;;;;;4996216;28;20030;-84
2023/06/17 01:25:13;;;;;;;0.10;0.10;;;14.00;99.90;;;;;;4995973;28;20322;-76
2023/06/17 01:27:41;;;;;;;2.15;2.05;;;15.80;99.90;;;;;;4995682;28;20029;-76
2023/06/17 01:30:08;;;;;;;0.10;0.10;;;14.00;99.90;;;;;;4996295;28;20036;-78
2023/06/17 01:32:34;;;;;;;0.10;0.10;;;14.00;99.90;;;;;;4995530;28;20727;-77
2023/06/17 01:35:12;;;;;;;0.73;0.73;;;13.80;99.90;;;;;;4995792;28;20065;-75
2023/06/17 01:37:53;;;;;;;0.10;0.10;;;14.00;99.90;;;;;;4995897;28;20034;-79
2023/06/17 01:40:21;;;;;;;0.50;0.50;;;10.90;99.90;;;;;;4996078;28;20048;-87
2023/06/17 01:42:50;;;;;;;0.20;0.20;;;14.00;99.90;;;;;;4996009;28;20579;-78
2023/06/17 01:45:17;;;;;;;0.20;0.20;;;14.80;99.90;;;;;;4995779;28;20335;-77
2023/06/17 01:47:43;;;;;;;0.10;0.10;;;14.10;99.90;;;;;;4978497;28;20061;-77
2023/06/17 01:50:10;;;;;;;0.10;0.10;;;14.00;99.90;;;;;;5088338;28;20052;-77
2023/06/17 01:52:36;;;;;;;0.47;0.47;;;14.60;99.90;;;;;;5080443;28;20212;-77
2023/06/17 01:55:03;;;;;;;0.68;0.68;;;13.90;99.90;;;;;;5098471;28;20675;-77
2023/06/17 01:57:29;;;;;;;4.47;3.13;;;13.90;99.90;;;;;;5100598;28;20361;-77
2023/06/17 01:59:55;;;;;;;0.20;0.20;;;13.90;99.90;;;;;;5101965;28;20033;-77
2023/06/17 02:02:22;;;;;;;0.10;0.10;;;13.90;99.90;;;;;;5100355;28;20040;-84
2023/06/17 02:04:48;;;;;;;1.55;1.45;;;13.90;99.90;;;;;;5103055;28;20038;-77
2023/06/17 02:07:18;;;;;;;0.30;0.30;;;13.90;99.90;;;;;;5101433;28;20078;-82
2023/06/17 02:09:45;;;;;;;0.10;0.10;;;13.90;99.90;;;;;;5099095;28;20023;-79
2023/06/17 02:12:11;;;;;;;1.42;1.40;;;13.90;99.90;;;;;;5099929;28;20235;-77
2023/06/17 02:14:37;;;;;;;0.10;0.10;;;14.00;99.90;;;;;;5079848;28;20596;-79
2023/06/17 02:17:04;;;;;;;0.43;0.43;;;13.90;99.90;;;;;;5098118;28;20020;-76
2023/06/17 02:19:35;;;;;;;0.20;0.20;;;13.90;99.90;;;;;;5098172;28;20071;-76
2023/06/17 02:22:01;;;;;;;0.10;0.10;;;13.90;99.90;;;;;;5098808;28;20292;-77
2023/06/17 02:24:27;;;;;;;4.03;3.83;;;13.90;99.90;;;;;;5098363;28;20272;-76
2023/06/17 02:26:53;;;;;;;0.10;0.10;;;13.90;99.90;;;;;;5098086;28;20065;-77
2023/06/17 02:29:22;;;;;;;0.20;0.20;;;13.90;99.90;;;;;;5080354;28;20571;-74
2023/06/17 02:31:48;;;;;;;0.20;0.20;;;13.70;99.90;;;;;;5097780;28;20023;-77
2023/06/17 02:34:14;;;;;;;0.10;0.10;;;13.90;99.90;;;;;;5097996;28;20035;-79
2023/06/17 02:36:39;;;;;;;0.13;0.13;;;13.90;99.90;;;;;;5098038;28;20035;-80
2023/06/17 02:39:06;;;;;;;0.25;0.25;;;13.90;99.90;;;;;;5097952;28;20734;-76
2023/06/17 02:41:32;;;;;;;3.42;2.60;;;13.90;99.90;;;;;;5097788;28;20081;-79
2023/06/17 02:43:59;;;;;;;3.10;2.92;;;13.80;99.90;;;;;;5097995;28;20034;-76
2023/06/17 02:46:25;;;;;;;0.20;0.20;;;13.80;99.90;;;;;;5097992;28;20571;-82
2023/06/17 02:48:51;;;;;;;0.10;0.10;;;13.90;99.90;;;;;;5097577;28;20646;-77
2023/06/17 02:51:17;;;;;;;0.40;0.40;;;13.90;99.90;;;;;;5098042;28;20062;-76
2023/06/17 02:53:43;;;;;;;1.08;1.08;;;13.90;99.90;;;;;;5098684;28;20038;-82
2023/06/17 02:56:12;;;;;;;0.20;0.20;;;13.80;99.90;;;;;;5083397;28;20048;-80
2023/06/17 02:58:38;;;;;;;1.95;1.85;;;13.80;99.90;;;;;;5101122;28;20051;-76
2023/06/17 03:01:07;;;;;;;0.20;0.20;;;13.80;99.90;;;;;;5102253;28;20012;-83
2023/06/17 03:03:36;;;;;;;0.90;0.90;;;13.80;99.90;;;;;;5101817;28;20085;-78
2023/06/17 03:06:05;;;;;;;0.90;0.90;;;14.10;99.90;;;;;;5101649;28;20649;-76
2023/06/17 03:08:33;;;;;;;0.20;0.20;;;13.80;99.90;;;;;;5101900;28;20051;-75
2023/06/17 03:10:59;;;;;;;0.32;0.32;;;13.80;99.90;;;;;;5101722;28;20056;-77
2023/06/17 03:13:26;;;;;;;0.20;0.20;;;13.90;99.90;;;;;;5082885;28;20429;-76
2023/06/17 03:15:53;;;;;;;0.10;0.10;;;13.90;99.90;;;;;;5101764;28;20312;-82
2023/06/17 03:18:22;;;;;;;0.20;0.20;;;13.90;99.90;;;;;;5101529;28;20122;-75
2023/06/17 03:20:49;;;;;;;0.63;0.63;;;13.90;99.90;;;;;;5083363;28;20019;-75
2023/06/17 03:23:15;;;;;;;0.40;0.40;;;13.90;99.90;;;;;;5101492;28;20331;-80
2023/06/17 03:25:42;;;;;;;0.50;0.50;;;13.90;99.90;;;;;;5101540;28;20058;-76
2023/06/17 03:28:08;;;;;;;0.20;0.20;;;14.00;99.90;;;;;;5101443;28;20039;-76
2023/06/17 03:30:34;;;;;;;0.77;0.77;;;14.00;99.90;;;;;;5101503;28;20027;-75
2023/06/17 03:33:03;;;;;;;11.15;7.47;;;14.00;99.90;;;;;;5101265;28;20506;-76
2023/06/17 03:35:29;;;;;;;1.40;1.40;;;14.00;99.90;;;;;;5083070;28;20130;-77
2023/06/17 03:37:55;;;;;;;0.13;0.13;;;14.00;99.90;;;;;;5100942;28;20185;-77
2023/06/17 03:40:20;;;;;;;1.27;1.27;;;14.10;99.90;;;;;;5101428;28;20027;-77
2023/06/17 03:42:46;;;;;;;0.10;0.10;;;14.10;99.90;;;;;;5101123;28;20019;-78
2023/06/17 03:45:12;;;;;;;0.20;0.20;;;14.10;99.90;;;;;;5082343;28;20057;-76
2023/06/17 03:47:38;;;;;;;6.07;5.78;;;14.10;99.90;;;;;;5101307;28;20012;-76
2023/06/17 03:50:06;;;;;;;0.20;0.20;;;14.20;99.90;;;;;;5101600;28;20066;-75
2023/06/17 03:52:31;;;;;;;0.10;0.10;;;14.20;99.90;;;;;;5101925;28;20054;-77
2023/06/17 03:54:57;;;;;;;0.10;0.10;;;14.10;99.90;;;;;;5101345;28;20494;-75
2023/06/17 03:57:23;;;;;;;0.13;0.13;;;14.10;99.90;;;;;;5101859;28;20070;-79
2023/06/17 03:59:49;;;;;;;0.20;0.20;;;14.20;99.90;;;;;;5081400;28;20070;-77
2023/06/17 04:02:15;;;;;;;0.10;0.10;;;14.20;99.90;;;;;;5101332;28;20367;-75
2023/06/17 04:04:40;;;;;;;0.20;0.20;;;14.20;99.90;;;;;;5100169;28;20080;-76
2023/06/17 04:07:06;;;;;;;0.50;0.50;;;14.30;99.90;;;;;;5100957;28;20024;-79
2023/06/17 04:09:32;;;;;;;0.57;0.57;;;14.20;99.90;;;;;;5100128;28;20358;-76
2023/06/17 04:11:58;;;;;;;0.10;0.10;;;14.30;99.90;;;;;;5100477;28;20110;-76
2023/06/17 04:14:23;;;;;;;1.98;1.90;;;14.20;99.90;;;;;;5100441;28;20470;-83
2023/06/17 04:16:49;;;;;;;0.10;0.10;;;14.20;99.90;;;;;;5100013;28;20027;-76
2023/06/17 04:19:17;;;;;;;0.10;0.10;;;14.20;99.90;;;;;;5081232;28;20035;-75
2023/06/17 04:21:46;;;;;;;0.20;0.20;;;14.20;99.90;;;;;;5100051;28;20085;-76
2023/06/17 04:24:11;;;;;;;0.20;0.20;;;14.20;99.90;;;;;;5100080;28;20548;-76
2023/06/17 04:26:37;;;;;;;0.63;0.63;;;14.20;99.90;;;;;;5099952;28;20019;-75
2023/06/17 04:29:06;;;;;;;0.10;0.10;;;14.30;99.90;;;;;;5099969;28;20060;-75
2023/06/17 04:31:35;;;;;;;0.15;0.15;;;14.20;99.90;;;;;;5099541;28;20244;-76
2023/06/17 04:34:01;;;;;;;0.15;0.15;;;14.10;99.90;;;;;;5099772;28;20053;-75
2023/06/17 04:36:28;;;;;;;1.67;1.58;;;14.30;99.90;;;;;;5099800;28;20124;-77
2023/06/17 04:38:54;;;;;;;0.82;0.82;;;14.30;99.90;;;;;;5081372;28;20051;-75
2023/06/17 04:41:20;;;;;;;0.10;0.10;;;14.40;99.90;;;;;;5081268;28;20023;-81
2023/06/17 04:43:48;;;;;;;0.60;0.57;;;14.30;99.90;;;;;;5099763;28;20300;-76
2023/06/17 04:46:16;;;;;;;0.20;0.20;;;14.40;99.90;;;;;;5080393;28;20316;-80
2023/06/17 04:48:43;;;;;;;0.10;0.10;;;14.30;99.90;;;;;;5099871;28;20016;-75
2023/06/17 04:51:12;;;;;;;0.57;0.57;;;14.30;99.90;;;;;;5099664;28;20027;-77
2023/06/17 04:53:39;;;;;;;0.28;0.28;;;14.30;99.90;;;;;;5099578;28;20037;-76
2023/06/17 04:56:06;;;;;;;0.20;0.20;;;14.30;99.90;;;;;;5099381;28;20075;-75
2023/06/17 04:58:33;;;;;;;0.68;0.68;;;14.40;99.90;;;;;;5099635;28;20362;-75
2023/06/17 05:00:59;;;;;;;0.20;0.20;;;14.30;99.90;;;;;;5099178;28;20051;-77
2023/06/17 05:03:25;;;;;;;0.10;0.10;;;;;;;;;;5099187;28;20051;-81
2023/06/17 05:05:52;;;;;;;0.52;0.52;;;14.40;99.90;;;;;;5099285;28;20039;-85
2023/06/17 05:08:18;;;;;;;0.22;0.22;;;14.30;99.90;;;;;;5099409;28;20385;-75
2023/06/17 05:10:43;;;;;;;0.52;0.52;;;14.20;99.90;;;;;;5080962;28;20024;-85
2023/06/17 05:13:09;;;;;;;0.50;0.50;;;14.20;99.90;;;;;;5099352;28;20528;-80
2023/06/17 05:15:35;;;;;;;0.40;0.40;;;15.60;99.90;;;;;;5099033;28;20034;-76
2023/06/17 05:18:01;;;;;;;0.60;0.60;;;14.10;99.90;;;;;;5098106;28;20448;-79
2023/06/17 05:20:27;;;;;;;1.33;1.33;;;14.10;99.90;;;;;;5080393;28;20158;-74
2023/06/17 05:22:53;;;;;;;0.20;0.20;;;14.10;99.90;;;;;;5098809;28;20095;-81
2023/06/17 05:25:18;;;;;;;0.20;0.20;;;14.10;99.90;;;;;;5099157;28;20437;-78
2023/06/17 05:27:44;;;;;;;0.17;0.17;;;14.10;99.90;;;;;;5098718;28;20048;-76
2023/06/17 05:30:10;;;;;;;0.30;0.30;;;14.10;99.90;;;;;;5098510;28;20642;-76
2023/06/17 05:32:36;;;;;;;0.10;0.10;;;14.20;99.90;;;;;;5098395;28;20102;-77
2023/06/17 05:35:02;;;;;;;0.30;0.30;;;14.20;99.90;;;;;;5098486;28;20041;-76
2023/06/17 05:37:28;;;;;;;0.10;0.10;;;14.30;99.90;;;;;;5098554;28;20039;-78
2023/06/17 05:39:53;;;;;;;0.30;0.30;;;14.40;99.90;;;;;;5098298;28;20058;-78
2023/06/17 05:42:19;;;;;;;0.20;0.20;;;14.50;99.90;;;;;;5098243;28;20132;-79
2023/06/17 05:44:45;;;;;;;0.17;0.17;;;14.60;99.90;;;;;;5098384;28;20556;-77
2023/06/17 05:47:11;;;;;;;0.10;0.10;;;14.70;99.90;;;;;;5098270;28;20069;-78
2023/06/17 05:49:36;;;;;;;0.75;0.75;;;12.30;99.90;;;;;;5080234;28;20116;-77
2023/06/17 05:52:02;;;;;;;0.20;0.20;;;14.80;99.90;;;;;;5098270;28;20108;-77
2023/06/17 05:54:28;;;;;;;0.10;0.10;;;14.80;99.90;;;;;;5079764;28;20040;-79
2023/06/17 05:56:54;;;;;;;2.70;2.60;;;14.90;99.90;;;;;;5097998;28;20591;-76
2023/06/17 05:59:20;;;;;;;2.05;1.95;;;14.90;99.90;;;;;;5097907;28;20312;-77
2023/06/17 06:01:45;;;;;;;0.20;0.20;;;14.90;99.90;;;;;;5097956;28;20027;-76
2023/06/17 06:04:11;;;;;;;0.82;0.82;;;14.90;99.90;;;;;;5098270;28;20334;-83
2023/06/17 06:06:37;;;;;;;0.17;0.17;;;14.90;99.90;;;;;;5079634;28;20041;-79
2023/06/17 06:09:03;;;;;;;0.10;0.10;;;14.90;99.90;;;;;;5098373;28;20613;-81
2023/06/17 06:11:29;;;;;;;1.67;1.58;;;15.00;99.90;;;;;;5097939;28;20042;-76
2023/06/17 06:13:55;;;;;;;2.28;1.30;;;;;;;;;;5098403;28;20027;-77
2023/06/17 06:16:21;;;;;;;0.45;0.45;;;15.20;99.90;;;;;;5100072;28;20318;-80
2023/06/17 06:18:46;;;;;;;0.10;0.10;;;13.20;99.90;;;;;;5100508;28;20031;-79
2023/06/17 06:21:12;;;;;;;0.13;0.13;;;15.40;99.90;;;;;;5103868;28;20026;-76
2023/06/17 06:23:38;;;;;;;1.55;1.40;;;15.70;99.90;;;;;;5102770;28;20381;-79
2023/06/17 06:26:04;;;;;;;0.20;0.20;;;15.50;99.90;;;;;;5100660;28;20159;-76
2023/06/17 06:28:29;;;;;;;0.32;0.32;;;15.60;99.90;;;;;;5098825;28;20417;-82
2023/06/17 06:30:55;;;;;;;0.80;0.80;;;15.90;99.90;;;;;;5098403;28;20397;-77
2023/06/17 06:33:22;;;;;;;0.88;0.88;;;15.80;99.90;;;;;;5098368;28;20478;-78
2023/06/17 06:35:48;;;;;;;0.20;0.20;;;15.80;99.90;;;;;;5078935;28;20255;-82
2023/06/17 06:38:14;;;;;;;0.47;0.47;;;15.80;99.90;;;;;;5097538;28;20320;-77
2023/06/17 06:40:40;;;;;;;84.03;5.75;;;15.80;99.90;;;;;;5097662;28;20039;-75
2023/06/17 06:43:06;;;;;;;0.20;0.20;;;15.90;99.90;;;;;;5079273;28;20232;-76
2023/06/17 06:45:31;;;;;;;0.20;0.20;;;16.00;99.90;;;;;;5097745;28;20312;-80
2023/06/17 06:47:57;;;;;;;0.43;0.43;;;16.00;99.90;;;;;;5098326;28;20019;-77
2023/06/17 06:50:24;;;;;;;0.10;0.10;;;15.90;99.90;;;;;;5097640;28;20090;-76
2023/06/17 06:52:50;;;;;;;0.10;0.10;;;16.00;99.90;;;;;;5097819;28;20015;-77
2023/06/17 06:55:19;;;;;;;3.05;2.83;;;16.00;99.90;;;;;;5098136;28;20487;-79
2023/06/17 06:57:45;;;;;;;0.30;0.30;;;16.00;99.90;;;;;;5098721;28;20296;-82
2023/06/17 07:00:11;;;;;;;0.10;0.10;;;16.10;99.90;;;;;;5098214;28;20055;-77
2023/06/17 07:02:37;;;;;;;0.70;0.70;;;16.10;99.90;;;;;;5079621;28;20220;-78
2023/06/17 07:05:07;;;;;;;0.30;0.30;;;16.20;99.90;;;;;;5097913;28;20387;-86
2023/06/17 07:07:32;;;;;;;1.13;1.13;;;16.20;99.90;;;;;;5097851;28;20027;-76
2023/06/17 07:09:58;;;;;;;1.65;1.65;;;16.30;99.90;;;;;;5097811;28;20019;-75
2023/06/17 07:12:24;;;;;;;0.10;0.10;;;16.40;99.90;;;;;;5079613;28;20119;-76
2023/06/17 07:14:50;;;;;;;0.10;0.10;;;16.40;99.90;;;;;;5098145;28;20478;-76
2023/06/17 07:17:15;;;;;;;0.15;0.15;;;16.60;99.90;;;;;;5097685;28;20027;-82
2023/06/17 07:19:41;;;;;;;0.17;0.17;;;16.60;99.90;;;;;;5097835;28;20295;-76
2023/06/17 07:22:07;;;;;;;1.15;1.15;;;16.70;99.90;;;;;;5079968;28;20023;-80
2023/06/17 07:24:33;;;;;;;0.10;0.10;;;16.80;99.90;;;;;;5080176;28;20490;-86
2023/06/17 07:26:59;;;;;;;0.20;0.20;;;16.90;99.90;;;;;;5099567;28;20034;-82
2023/06/17 07:29:25;;;;;;;0.13;0.13;;;16.90;99.90;;;;;;5082606;28;20027;-81
2023/06/17 07:31:51;;;;;;;1.20;0.95;;;17.00;99.90;;;;;;5099279;28;20019;-81
2023/06/17 07:34:17;;;;;;;0.35;0.35;;;17.70;99.90;;;;;;5099268;28;20489;-77
2023/06/17 07:36:43;;;;;;;0.10;0.10;;;17.00;99.90;;;;;;5100121;28;20753;-77
2023/06/17 07:39:09;;;;;;;0.50;0.50;;;17.00;99.90;;;;;;5098589;28;20426;-85
2023/06/17 07:41:35;;;;;;;0.20;0.20;;;17.00;99.90;;;;;;5083494;28;20520;-78
2023/06/17 07:44:00;;;;;;;0.15;0.15;;;17.00;99.90;;;;;;5103174;28;20110;-78
2023/06/17 07:46:26;;;;;;;0.85;0.85;;;17.10;99.90;;;;;;5103672;28;20012;-78
2023/06/17 07:48:52;;;;;;;0.10;0.10;;;17.10;99.90;;;;;;5103036;28;20042;-83
2023/06/17 07:51:18;;;;;;;0.20;0.20;;;17.20;99.90;;;;;;5103580;28;20053;-76
2023/06/17 07:53:43;;;;;;;0.10;0.10;;;17.30;99.90;;;;;;5102287;28;20012;-76
2023/06/17 07:56:09;;;;;;;0.10;0.10;;;17.40;99.90;;;;;;5101789;28;20128;-82
2023/06/17 07:58:35;;;;;;;0.30;0.30;;;17.40;99.90;;;;;;5101541;28;20023;-76
2023/06/17 08:01:01;;;;;;;0.10;0.10;;;17.50;99.90;;;;;;5101553;28;20809;-79
2023/06/17 08:03:27;;;;;;;4.07;3.72;;;17.50;99.90;;;;;;5083410;28;20764;-77
2023/06/17 08:05:53;;;;;;;0.20;0.20;;;17.90;99.90;;;;;;5083377;28;20512;-75
2023/06/17 08:08:18;;;;;;;0.10;0.10;;;17.60;99.90;;;;;;5083835;28;20035;-81
2023/06/17 08:10:44;;;;;;;0.20;0.20;;;17.60;99.90;;;;;;5101896;28;20020;-76
2023/06/17 08:13:10;;;;;;;1.30;1.20;;;17.70;99.90;;;;;;5083542;28;20024;-77
2023/06/17 08:15:36;;;;;;;0.65;0.65;;;17.90;99.90;;;;;;5101774;28;20157;-79
2023/06/17 08:18:02;;;;;;;0.20;0.20;;;18.00;99.90;;;;;;5101415;28;20012;-88
2023/06/17 08:20:28;;;;;;;0.10;0.10;;;18.80;99.90;;;;;;5101512;28;20027;-87
2023/06/17 08:22:53;;;;;;;0.20;0.20;;;18.20;99.90;;;;;;5101652;28;20046;-77
2023/06/17 08:25:20;;;;;;;0.20;0.20;;;18.30;99.90;;;;;;5101540;28;20030;-77
2023/06/17 08:27:50;;;;;;;0.82;0.82;;;18.30;99.90;;;;;;5102577;28;20711;-79
2023/06/17 08:30:17;;;;;;;0.10;0.10;;;18.30;99.90;;;;;;5104165;28;20022;-88
2023/06/17 08:32:42;;;;;;;0.10;0.10;;;18.40;99.90;;;;;;5108357;28;20069;-85
2023/06/17 08:35:08;;;;;;;0.10;0.10;;;18.40;99.90;;;;;;5108699;28;20028;-86
2023/06/17 08:37:34;;;;;;;0.10;0.10;;;18.40;99.90;;;;;;5117719;28;20166;-77
2023/06/17 08:40:00;;;;;;;0.30;0.30;;;18.30;99.90;;;;;;5113817;28;20097;-77
2023/06/17 08:42:29;;;;;;;0.15;0.15;;;18.40;99.90;;;;;;5102855;28;20020;-78
2023/06/17 08:44:58;;;;;;;0.10;0.10;;;18.20;99.90;;;;;;5103601;28;20028;-80
2023/06/17 08:47:25;;;;;;;2.50;2.40;;;18.30;99.90;;;;;;5085205;28;20561;-83
2023/06/17 08:49:54;;;;;;;0.20;0.20;;;18.40;99.90;;;;;;5102346;28;20065;-77
2023/06/17 08:52:20;;;;;;;0.30;0.30;;;18.50;99.90;;;;;;5103886;28;20493;-79
2023/06/17 08:54:47;;;;;;;0.10;0.10;;;18.60;99.90;;;;;;5086182;28;20070;-78
2023/06/17 08:57:13;;;;;;;0.10;0.10;;;18.60;99.90;;;;;;5103710;28;20039;-80
2023/06/17 08:59:42;;;;;;;0.40;0.40;;;18.70;99.90;;;;;;5100693;28;20583;-78
2023/06/17 09:02:10;;;;;;;0.10;0.10;;;18.90;99.90;;;;;;5101513;28;20077;-75
2023/06/17 09:04:36;;;;;;;0.10;0.10;;;18.90;99.90;;;;;;5100700;28;20072;-75
2023/06/17 09:07:02;;;;;;;0.68;0.60;;;19.10;99.90;;;;;;5101596;28;20028;-80
2023/06/17 09:09:28;;;;;;;0.10;0.10;;;19.20;99.90;;;;;;5101641;28;20528;-76
2023/06/17 09:11:53;;;;;;;0.20;0.20;;;19.20;99.90;;;;;;5083247;28;20066;-79
2023/06/17 09:14:25;;;;;;;0.88;0.88;;;19.20;99.90;;;;;;5101343;28;20031;-82
2023/06/17 09:16:51;;;;;;;0.30;0.30;;;19.20;99.90;;;;;;5101815;28;20015;-77
2023/06/17 09:19:17;;;;;;;0.20;0.20;;;19.30;99.90;;;;;;5102430;28;20027;-84
2023/06/17 09:21:47;;;;;;;0.30;0.30;;;18.70;99.90;;;;;;5103267;28;20633;-85
2023/06/17 09:24:13;;;;;;;0.20;0.20;;;19.20;99.90;;;;;;5102749;28;20031;-76
2023/06/17 09:26:41;;;;;;;0.13;0.13;;;19.20;99.90;;;;;;5067950;28;20654;-76
2023/06/17 09:29:09;;;;;;;8.13;7.47;;;19.20;99.90;;;;;;5084049;28;20114;-80
2023/06/17 09:31:50;;;;;;;0.30;0.30;;;19.20;99.90;;;;;;5083001;28;20046;-81
2023/06/17 09:34:16;;;;;;;0.60;0.60;;;19.50;99.90;;;;;;5100560;28;20034;-76
2023/06/17 09:36:42;;;;;;;0.17;0.17;;;19.70;99.90;;;;;;5100378;28;20043;-78
2023/06/17 09:39:12;;;;;;;0.10;0.10;;;20.00;99.90;;;;;;5082445;28;20622;-77
2023/06/17 09:41:40;;;;;;;0.30;0.30;;;20.10;99.90;;;;;;5100143;28;20023;-80
2023/06/17 09:44:07;;;;;;;0.68;0.68;;;20.50;99.90;;;;;;5099762;28;20057;-76
2023/06/17 09:46:38;;;;;;;0.30;0.30;;;20.50;99.90;;;;;;5099299;28;20012;-79
2023/06/17 09:49:21;;;;;;;0.20;0.20;;;20.60;99.90;;;;;;5099785;28;20020;-81
2023/06/17 09:51:48;;;;;;;0.10;0.10;;;21.10;99.90;;;;;;5099813;28;20043;-80
2023/06/17 09:54:15;;;;;;;0.10;0.10;;;21.70;99.90;;;;;;5081620;28;20080;-79
2023/06/17 09:56:43;;;;;;;0.10;0.10;;;21.70;99.90;;;;;;5098883;28;20018;-79
2023/06/17 09:59:10;;;;;;;0.30;0.30;;;21.70;99.90;;;;;;5080196;28;20024;-82
2023/06/17 10:01:39;;;;;;;0.10;0.10;;;22.20;99.90;;;;;;5099048;28;20024;-85
2023/06/17 10:04:06;;;;;;;0.10;0.10;;;22.50;99.90;;;;;;5099136;28;20107;-80
2023/06/17 10:06:37;;;;;;;0.10;0.10;;;22.60;99.90;;;;;;5081250;28;20580;-85
2023/06/17 10:09:08;;;;;;;0.10;0.10;;;22.60;99.90;;;;;;5100119;28;20020;-83
2023/06/17 10:11:35;;;;;;;0.28;0.28;;;22.40;99.90;;;;;;5081108;28;20031;-83
2023/06/17 10:14:10;;;;;;;0.20;0.20;;;22.30;99.90;;;;;;5099636;28;20046;-80
2023/06/17 10:16:40;;;;;;;0.10;0.10;;;21.80;99.90;;;;;;5099301;28;20088;-86
2023/06/17 10:19:08;;;;;;;0.10;0.10;;;22.00;99.90;;;;;;5098631;28;20372;-79
2023/06/17 10:21:39;;;;;;;0.15;0.15;;;21.90;99.90;;;;;;5099114;28;20466;-81
2023/06/17 10:24:05;;;;;;;0.20;0.20;;;21.60;99.90;;;;;;5098874;28;20028;-85
2023/06/17 10:26:31;;;;;;;0.10;0.10;;;21.50;99.90;;;;;;5098662;28;20081;-81
2023/06/17 10:29:00;;;;;;;0.17;0.17;;;20.30;99.90;;;;;;5099264;28;20057;-85
2023/06/17 10:31:38;;;;;;;0.10;0.10;;;21.20;99.90;;;;;;5099309;28;20018;-83
2023/06/17 10:34:05;;;;;;;0.10;0.10;;;21.20;99.90;;;;;;5081110;28;20023;-86
2023/06/17 10:36:33;;;;;;;0.10;0.10;;;21.20;99.90;;;;;;5099424;28;20030;-79
2023/06/17 10:39:10;;;;;;;0.65;0.65;;;21.20;99.90;;;;;;5099311;28;20149;-84
2023/06/17 10:41:41;;;;;;;0.10;0.10;;;21.40;99.90;;;;;;5098835;28;20020;-83
2023/06/17 10:44:32;;;;;;;0.20;0.20;;;21.40;99.90;;;;;;5098599;28;20296;-78
2023/06/17 10:46:57;;;;;;;0.10;0.10;;;21.40;99.90;;;;;;5098536;28;20321;-75
2023/06/17 10:49:24;;;;;;;0.73;0.65;;;21.40;99.90;;;;;;5099038;28;20673;-85
2023/06/17 10:51:51;;;;;;;0.40;0.40;;;21.50;99.90;;;;;;5098764;28;20099;-79
2023/06/17 10:54:30;;;;;;;0.10;0.10;;;21.60;99.90;;;;;;5080895;28;20449;-84
2023/06/17 10:56:57;;;;;;;0.10;0.10;;;21.80;99.90;;;;;;5101751;28;20672;-77
2023/06/17 10:59:25;;;;;;;1.38;1.27;;;22.20;99.90;;;;;;5081217;28;20039;-78
2023/06/17 11:01:52;;;;;;;0.10;0.10;;;22.50;99.90;;;;;;5099029;28;20023;-78
2023/06/17 11:04:18;;;;;;;0.15;0.15;;;22.60;99.90;;;;;;5099618;28;20031;-76
2023/06/17 11:06:46;;;;;;;0.47;0.45;;;22.60;99.90;;;;;;5099686;28;20012;-86
2023/06/17 11:09:11;;;;;;;0.00;0.00;;;22.80;99.90;;;;;;5099609;28;20035;-84
2023/06/17 11:11:37;;;;;;;0.10;0.10;;;22.90;99.90;;;;;;5099268;28;20016;-83
2023/06/17 11:14:03;;;;;;;0.10;0.10;;;22.90;99.90;;;;;;5099348;28;20028;-79
2023/06/17 11:16:29;;;;;;;0.10;0.10;;;22.70;99.90;;;;;;5102707;28;20018;-77
2023/06/17 11:18:55;;;;;;;0.00;0.00;;;22.60;99.90;;;;;;5084648;28;20103;-80
2023/06/17 11:21:20;;;;;;;0.10;0.10;;;22.50;99.90;;;;;;5103346;28;20099;-79
2023/06/17 11:23:46;;;;;;;0.00;0.00;;;22.40;99.90;;;;;;5103442;28;20219;-78
2023/06/17 11:26:12;;;;;;;0.10;0.10;;;22.50;99.90;;;;;;5103392;28;20057;-81
2023/06/17 11:28:39;;;;;;;0.10;0.10;;;22.50;99.90;;;;;;5084292;28;20106;-79
2023/06/17 11:31:07;;;;;;;1.02;0.95;;;22.30;99.90;;;;;;5103753;28;20020;-82
2023/06/17 11:33:33;;;;;;;0.10;0.10;;;22.20;99.90;;;;;;5103231;28;20012;-80
2023/06/17 11:35:59;;;;;;;0.10;0.10;;;22.10;99.90;;;;;;5084614;28;20023;-82
2023/06/17 11:38:26;;;;;;;0.10;0.10;;;22.20;99.90;;;;;;5084685;28;20073;-83
2023/06/17 11:40:56;;;;;;;0.10;0.10;;;22.20;99.90;;;;;;5102779;28;20661;-79
2023/06/17 11:43:28;;;;;;;0.10;0.10;;;22.20;99.90;;;;;;5102821;28;20096;-81
2023/06/17 11:45:58;;;;;;;0.10;0.10;;;22.20;99.90;;;;;;5103067;28;20016;-77
2023/06/17 11:48:28;;;;;;;0.30;0.30;;;22.20;99.90;;;;;;5102009;28;20112;-82
2023/06/17 11:50:56;;;;;;;3.20;1.30;;;22.20;99.90;;;;;;5102677;28;20028;-80
2023/06/17 11:53:36;;;;;;;0.20;0.20;;;22.30;99.90;;;;;;5102738;28;20677;-76
2023/06/17 11:56:06;;;;;;;0.20;0.20;;;22.10;99.90;;;;;;5083947;28;20075;-77
2023/06/17 11:58:38;;;;;;;0.10;0.10;;;22.10;99.90;;;;;;5101925;28;20015;-82
2023/06/17 12:01:04;;;;;;;0.30;0.30;;;21.90;99.90;;;;;;5101950;28;20019;-76
2023/06/17 12:03:30;;;;;;;0.20;0.20;;;21.90;99.90;;;;;;5101439;28;20646;-77
2023/06/17 12:05:57;;;;;;;0.20;0.20;;;21.80;99.90;;;;;;5101930;28;20024;-83
2023/06/17 12:08:35;;;;;;;1.70;1.60;;;22.10;99.90;;;;;;5101807;28;20016;-77
2023/06/17 12:11:22;;;;;;;0.10;0.10;;;22.30;99.90;;;;;;5083790;28;20027;-77
2023/06/17 12:13:50;;;;;;;0.20;0.20;;;22.30;99.90;;;;;;5102198;28;20012;-79
2023/06/17 12:16:31;;;;;;;0.10;0.10;;;22.50;99.90;;;;;;5101292;28;20102;-80
2023/06/17 12:18:58;;;;;;;0.20;0.20;;;22.70;99.90;;;;;;5102402;28;20028;-85
2023/06/17 12:21:24;;;;;;;0.20;0.20;;;22.70;99.90;;;;;;5101605;28;20023;-79
2023/06/17 12:23:53;;;;;;;0.10;0.10;;;22.70;99.90;;;;;;5102378;28;20293;-80
2023/06/17 12:26:24;;;;;;;0.20;0.20;;;22.70;99.90;;;;;;5102343;28;20015;-81
2023/06/17 12:28:50;;;;;;;0.10;0.10;;;22.50;99.90;;;;;;5083934;28;20187;-81
2023/06/17 12:31:19;;;;;;;0.10;0.10;;;22.50;99.90;;;;;;5102471;28;20278;-82
2023/06/17 12:33:46;;;;;;;0.98;0.65;;;22.30;99.90;;;;;;5101368;28;20024;-79
2023/06/17 12:36:13;;;;;;;0.10;0.10;;;22.20;99.90;;;;;;5101751;28;20016;-77
2023/06/17 12:38:39;;;;;;;0.15;0.15;;;22.20;99.90;;;;;;5102356;28;20027;-83
2023/06/17 12:41:06;;;;;;;0.20;0.20;;;22.10;99.90;;;;;;5101437;28;20027;-85
2023/06/17 12:43:31;;;;;;;0.20;0.20;;;22.00;99.90;;;;;;5102223;28;20539;-80
2023/06/17 12:45:58;;;;;;;0.40;0.40;;;21.80;99.90;;;;;;5102555;28;20083;-86
2023/06/17 12:48:26;;;;;;;0.10;0.10;;;21.60;99.90;;;;;;5102443;28;20576;-85